• Join FlightAware (Why Join?)
  • Login
  • US Flag 
04:32PM EST


 

Airport Tracker/Info


-or-


 

Live Flight TrackerFlight Track Log ✈ SKW4644 ✈ 29-Dec-2013 ✈ KLGB - KSLC

Flight Track Log - Related Links

Times and Time Zones

All times are in EST time to prevent confusion due to time zone crossing. See the SKW4644 flight status page for this flight to view local times or setup timezone preferences in your user account.

Time Position Orientation Groundspeed Altitude Reporting Facility
EST Latitude Longitude Course Direction KTS MPH feet Rate Location/Type
01:27PM 33.8431 -118.1833 49° Northeast 172 198 1,500  Level Los Angeles Center
01:28PM 33.8164 -118.2417 241° Southwest 221 254 4,500 2,760 Climbing Los Angeles Center
01:29PM 33.7497 -118.2578 191° South 232 267 7,300 2,280 Climbing Los Angeles Center
01:30PM 33.8346 -117.9494 23° Northeast  Level FlightAware Approximate
01:30PM 33.6944 -118.2142 147° Southeast 257 296 9,300  Level Los Angeles Center
01:31PM 33.9263 -117.9071 40° Northeast  Level FlightAware Approximate
01:31PM 33.7250 -118.1361 65° Northeast 281 323 11,100  Level Los Angeles Center
01:32PM 34.0052 -117.8354 29° Northeast  Level FlightAware Approximate
01:32PM 33.7897 -118.0689 41° Northeast 302 348 13,700  Level Los Angeles Center
01:33PM 34.0846 -117.7648 49° Northeast  Level FlightAware Approximate
01:34PM 33.8564 -118.0000 41° Northeast 314 361 16,500  Level Los Angeles Center
01:35PM 33.9322 -117.9186 42° Northeast 308 354 19,300 2,280 Climbing Los Angeles Center
01:36PM 34.0031 -117.8564 36° Northeast 315 362 21,300 1,920 Climbing Los Angeles Center
01:37PM 34.0761 -117.7897 37° Northeast 327 376 23,300 1,920 Climbing Los Angeles Center
01:38PM 34.1392 -117.7094 46° Northeast 334 384 25,300 1,740 Climbing Los Angeles Center
01:39PM 34.2011 -117.6256 48° Northeast 335 386 26,900 1,380 Climbing Los Angeles Center
01:40PM 34.2661 -117.5369 48° Northeast 347 399 28,200 960 Climbing Los Angeles Center
01:41PM 34.3475 -117.4261 48° Northeast 366 421 29,000 360 Climbing Los Angeles Center
01:42PM 34.4089 -117.3433 48° Northeast 386 444 29,000 300 Level Los Angeles Center
01:43PM 34.5028 -117.2344 44° Northeast 392 451 29,700 480 Climbing Los Angeles Center
01:44PM 34.5925 -117.1617 34° Northeast 390 449 30,000 120 Climbing Los Angeles Center
01:45PM 34.6792 -117.0889 35° Northeast 384 442 30,000 60 Level Los Angeles Center
01:46PM 34.7636 -117.0194 34° Northeast 373 429 30,200 720 Climbing Los Angeles Center
01:47PM 34.8644 -116.9347 35° Northeast 370 426 31,600 1,260 Climbing Los Angeles Center
01:48PM 34.9383 -116.8478 44° Northeast 374 430 32,900 1,140 Climbing Los Angeles Center
01:49PM 35.0047 -116.7519 50° Northeast 373 429 34,000 960 Climbing Los Angeles Center
01:50PM 35.0708 -116.6558 50° Northeast 371 427 35,000 480 Climbing Los Angeles Center
01:51PM 35.1372 -116.5578 50° Northeast 375 432 35,000  Level Los Angeles Center
01:52PM 35.2067 -116.4603 49° Northeast 379 436 35,000  Level Los Angeles Center
01:53PM 35.2881 -116.3411 50° Northeast 383 441 35,000  Level Los Angeles Center
01:54PM 35.3533 -116.2394 52° Northeast 382 440 35,000  Level Los Angeles Center
01:55PM 35.4189 -116.1450 50° Northeast 367 422 35,000  Level Los Angeles Center
01:56PM 35.4836 -116.0483 51° Northeast 366 421 35,000  Level Los Angeles Center
01:57PM 35.5478 -115.9528 50° Northeast 365 420 35,000  Level Los Angeles Center
01:58PM 35.6317 -115.8642 41° Northeast 364 419 35,000  Level Los Angeles Center
01:59PM 35.7128 -115.7950 35° Northeast 357 411 35,000  Level Los Angeles Center
02:00PM 35.7939 -115.7242 35° Northeast 358 412 35,000  Level Los Angeles Center
02:01PM 35.8903 -115.6403 35° Northeast 355 409 35,000  Level Los Angeles Center
02:02PM 35.9706 -115.5706 35° Northeast 355 409 35,000  Level Los Angeles Center
02:04PM 36.0514 -115.4997 35° Northeast 357 411 35,000  Level Los Angeles Center
02:05PM 36.1317 -115.4289 35° Northeast 358 412 35,000  Level Los Angeles Center
02:06PM 36.2128 -115.3589 35° Northeast 359 413 35,000  Level Los Angeles Center
02:07PM 36.3089 -115.2742 35° Northeast 359 413 35,000  Level Los Angeles Center
02:08PM 36.3892 -115.2039 35° Northeast 358 412 35,000  Level Los Angeles Center
02:09PM 36.4692 -115.1328 36° Northeast 355 409 35,000  Level Los Angeles Center
02:10PM 36.5494 -115.0611 36° Northeast 356 410 35,000  Level Los Angeles Center
02:11PM 36.6317 -114.9894 35° Northeast 359 413 35,000  Level Los Angeles Center
02:12PM 36.7289 -114.9019 36° Northeast 361 415 35,000  Level Los Angeles Center
02:13PM 36.8056 -114.8353 35° Northeast 360 414 35,000  Level Los Angeles Center
02:14PM 36.8878 -114.7622 35° Northeast 362 417 35,000  Level Los Angeles Center
02:15PM 36.9700 -114.6889 35° Northeast 363 418 35,000  Level Los Angeles Center
02:16PM 37.0672 -114.6014 36° Northeast 361 415 35,000  Level Los Angeles Center
02:17PM 37.1367 -114.5383 36° Northeast 359 413 35,000  Level Los Angeles Center
02:18PM 37.2353 -114.4508 35° Northeast 360 414 35,000  Level Los Angeles Center
02:19PM 37.3147 -114.3764 37° Northeast 358 412 35,000  Level Los Angeles Center
02:20PM 37.3911 -114.3089 35° Northeast 358 412 35,000  Level Los Angeles Center
02:21PM 37.4733 -114.2336 36° Northeast 362 417 35,000  Level Los Angeles Center
02:22PM 37.5711 -114.1431 36° Northeast 363 418 35,000  Level Los Angeles Center
02:23PM 37.6531 -114.0667 36° Northeast 365 420 35,000  Level Salt Lake Center
02:24PM 37.7356 -113.9911 36° Northeast 366 421 35,000  Level Salt Lake Center
02:25PM 37.8181 -113.9156 36° Northeast 366 421 35,000  Level Salt Lake Center
02:26PM 37.9008 -113.8389 36° Northeast 366 421 35,000  Level Salt Lake Center
02:27PM 37.9836 -113.7633 36° Northeast 367 422 35,000  Level Salt Lake Center
02:28PM 38.0650 -113.6869 36° Northeast 364 419 35,000  Level Salt Lake Center
02:29PM 38.1622 -113.5947 37° Northeast 363 418 35,000  Level Salt Lake Center
02:30PM 38.2442 -113.5181 36° Northeast 364 419 35,000  Level Salt Lake Center
02:31PM 38.3258 -113.4414 36° Northeast 364 419 35,000  Level Salt Lake Center
02:32PM 38.4072 -113.3650 36° Northeast 363 418 35,000  Level Salt Lake Center
02:34PM 38.4894 -113.2886 36° Northeast 364 419 35,000 -420 Level Salt Lake Center
02:35PM 38.5722 -113.2108 36° Northeast 365 420 34,200 -900 Descending Salt Lake Center
02:36PM 38.6539 -113.1306 38° Northeast 368 423 33,200 -1,080 Descending Salt Lake Center
02:37PM 38.7528 -113.0372 36° Northeast 368 423 32,000 -1,080 Descending Salt Lake Center
02:38PM 38.8375 -112.9561 37° Northeast 374 430 31,000 -1,020 Descending Salt Lake Center
02:39PM 38.9258 -112.8731 36° Northeast 388 447 30,000 -1,020 Descending Salt Lake Center
02:40PM 39.0128 -112.7881 37° Northeast 392 451 29,000 -1,020 Descending Salt Lake Center
02:41PM 39.1000 -112.7033 37° Northeast 392 451 28,000 -1,020 Descending Salt Lake Center
02:42PM 39.1881 -112.6194 36° Northeast 393 452 27,000 -1,020 Descending Salt Lake Center
02:43PM 39.2783 -112.5319 37° Northeast 397 457 26,000 -1,140 Descending Salt Lake Center
02:44PM 39.3994 -112.4481 28° Northeast 410 472 24,700 -1,620 Descending Salt Lake Center
02:45PM 39.5031 -112.3925 22° Northeast 405 466 22,700 -1,980 Descending Salt Lake Center
02:46PM 39.6028 -112.3342 24° Northeast 393 452 20,700 -1,980 Descending Salt Lake Center
02:47PM 39.6964 -112.2794 24° Northeast 370 426 18,700 -1,800 Descending Salt Lake Center
02:48PM 39.7892 -112.2261 24° Northeast 367 422 17,100 -1,920 Descending Salt Lake Center
02:49PM 39.8839 -112.1800 20° North 368 423 15,100 -1,980 Descending Salt Lake Center
02:49PM 39.8831 -112.1708 97° East 369 425 15,100 -240 Level Salt Lake Center
02:49PM 39.9256 -112.1519 19° North 334 384 15,000 -240 Descending Salt Lake Center
02:50PM 39.9758 -112.1186 27° Northeast 284 327 14,900 -240 Descending Salt Lake Center
02:50PM 39.9953 -112.1119 15° North 263 303 14,800 -420 Descending Salt Lake Center
02:51PM 40.0478 -112.0883 19° North 279 321 14,500 -540 Descending Salt Lake Center
02:51PM 40.0739 -112.0856 North 301 346 14,300 -420 Descending Salt Lake Center
02:52PM 40.1322 -112.0597 19° North 320 368 14,100 -420 Descending Salt Lake Center
02:52PM 40.1664 -112.0519 10° North 337 388 13,900 -900 Descending Salt Lake Center
02:53PM 40.2228 -112.0286 18° North 334 384 13,200 -1,140 Descending Salt Lake Center
02:53PM 40.2558 -112.0247 North 331 381 12,800 -1,200 Descending Salt Lake Center
02:54PM 40.3111 -111.9994 19° North 328 377 12,000 -1,320 Descending Salt Lake Center
02:54PM 40.3461 -111.9914 10° North 324 373 11,500 -1,200 Descending Salt Lake Center
02:55PM 40.3981 -111.9703 17° North 322 371 10,800 -1,020 Descending Salt Lake Center
02:55PM 40.4314 -111.9653 North 320 368 10,500 -300 Descending Salt Lake Center
02:56PM 40.4986 -111.9636 North 295 339 10,500 -240 Level Salt Lake Center
02:56PM 40.5117 -111.9692 342° North 280 322 10,300 -1,800 Descending Salt Lake Center
02:57PM 40.5711 -111.9697 360° North 265 305 8,700 -1,980 Descending Salt Lake Center
02:58PM 40.6083 -111.9789 349° North 273 314 7,700 -1,200 Descending Salt Lake Center
02:58PM 40.6453 -111.9789 360° North 266 306 7,500 -720 Descending Salt Lake Center
02:59PM 40.6697 -111.9833 352° North 235 270 7,100 -1,080 Descending Salt Lake Center
02:59PM 40.7014 -111.9853 357° North 202 232 6,400 -1,500 Descending Salt Lake Center
03:00PM 40.7186 -111.9922 343° North 162 186 5,600 -1,500 Descending Salt Lake Center
03:00PM 40.7450 -111.9919 360° North 163 188 4,900 -1,020 Descending Salt Lake Center
03:01PM 40.7667 -111.9958 352° North 143 165 4,500 -720 Descending Salt Lake Center
03:01PM 40.7844 -111.9964 359° North 146 168 4,200 -540 Descending Salt Lake Center